Terminal Aerodrome Forecast
Issued by NWS

Home | Current Version | Previous Version | Text Only | Print | Product List | Glossary On
Versions: 1 2 3 4 5 6 7 8 9 10 11 12 13 14 15 16 17 18 19 20 21 22 23 24 25 26 27 28 29 30 31 32 33 34 35 36 37 38 39 40 41 42 43
000
FTUS45 KBOU 281459 AAB
TAFAPA
TAF AMD
KAPA 281459Z 2815/2912 26008KT P6SM VCSH FEW080 BKN110
     FM281600 33006KT P6SM SCT120 BKN200
     FM282200 07008KT P6SM VCTS SCT090CB BKN140
      TEMPO 2822/2902 VRB15G30KT -TSRA BKN070CB
     FM290300 15010KT P6SM SCT090 BKN140
     FM290600 19010KT P6SM FEW090 BKN150=

USA.gov is the U.S. government's official web portal to all federal, state and local government web resources and services.